Time;durP1;ratioP1;P1;durP2;ratioP2;P2;SDS_P1;SDS_P2;PMS_P1;PMS_P2;Temp;Humidity;BMP_temperature;BMP_pressure;BME280_temperature;BME280_humidity;BME280_pressure;Samples;Min_cycle;Max_cycle;Signal;HPM_P1;HPM_P2
2023/07/22 00:02:14;;;;;;;6.27;5.67;;;;;;;15.01;82.41;100496.28;5034514;28;20234;-83
2023/07/22 00:04:41;;;;;;;7.53;5.57;;;;;;;14.96;83.08;100502.00;5030956;28;20593;-84
2023/07/22 00:07:07;;;;;;;6.13;5.17;;;;;;;14.94;83.19;100495.94;5026051;28;20211;-84
2023/07/22 00:09:35;;;;;;;7.97;6.13;;;;;;;14.92;83.08;100496.06;5035995;28;20234;-82
2023/07/22 00:12:01;;;;;;;7.53;6.03;;;;;;;14.90;83.31;100495.31;5033644;28;20218;-84
2023/07/22 00:14:28;;;;;;;6.97;5.70;;;;;;;14.88;83.61;100499.97;5030989;28;20208;-83
2023/07/22 00:16:54;;;;;;;7.67;6.07;;;;;;;14.88;83.84;100507.16;5029477;28;20206;-82
2023/07/22 00:19:21;;;;;;;8.03;5.87;;;;;;;14.86;83.90;100510.00;5034745;28;20646;-82
2023/07/22 00:21:48;;;;;;;7.43;6.37;;;;;;;14.84;84.41;100513.78;5033327;28;20211;-82
2023/07/22 00:24:14;;;;;;;8.47;6.63;;;;;;;14.82;84.42;100513.06;5032862;28;20203;-83
2023/07/22 00:26:42;;;;;;;7.03;6.13;;;;;;;14.81;84.58;100516.72;5033563;28;20594;-83
2023/07/22 00:29:09;;;;;;;7.47;6.37;;;;;;;14.78;84.73;100512.44;5033334;28;20272;-81
2023/07/22 00:31:35;;;;;;;7.87;6.83;;;;;;;14.78;85.22;100514.28;5030066;28;20222;-82
2023/07/22 00:34:02;;;;;;;8.47;6.60;;;;;;;14.77;85.14;100516.09;5031468;28;20764;-82
2023/07/22 00:36:29;;;;;;;8.50;7.40;;;;;;;14.74;86.00;100519.03;5033817;28;20299;-81
2023/07/22 00:38:55;;;;;;;8.30;6.60;;;;;;;14.73;86.34;100514.66;5032890;28;20217;-82
2023/07/22 00:41:22;;;;;;;7.57;6.40;;;;;;;14.73;85.96;100509.28;5033861;28;20748;-82
2023/07/22 00:43:50;;;;;;;8.97;7.17;;;;;;;14.74;86.05;100520.88;5033222;28;20605;-83
2023/07/22 00:46:17;;;;;;;8.47;6.90;;;;;;;14.70;86.19;100520.25;5033538;28;20204;-82
2023/07/22 00:48:43;;;;;;;8.27;7.40;;;;;;;14.71;86.54;100526.47;5033794;28;20218;-82
2023/07/22 00:51:10;;;;;;;12.53;7.57;;;;;;;14.68;86.89;100516.88;5033074;28;20226;-82
2023/07/22 00:53:36;;;;;;;10.80;7.87;;;;;;;14.67;86.97;100517.00;5028074;28;20229;-83
2023/07/22 00:56:03;;;;;;;10.47;7.17;;;;;;;14.67;86.64;100522.38;5031338;28;20209;-84
2023/07/22 00:58:30;;;;;;;10.17;7.70;;;;;;;14.64;86.98;100514.56;5032698;28;20655;-83
2023/07/22 01:00:57;;;;;;;9.90;7.70;;;;;;;14.63;86.63;100515.56;5033219;28;20233;-82
2023/07/22 01:03:25;;;;;;;11.40;7.17;;;;;;;14.59;87.04;100505.06;5029571;28;20230;-83
2023/07/22 01:05:54;;;;;;;11.10;7.63;;;;;;;14.57;86.81;100515.06;5034886;28;21097;-83
2023/07/22 01:08:21;;;;;;;8.53;7.20;;;;;;;14.56;86.95;100517.88;5037395;28;20235;-83
2023/07/22 01:10:48;;;;;;;13.47;7.40;;;;;;;14.55;87.25;100510.81;5033315;28;20646;-83
2023/07/22 01:13:14;;;;;;;9.27;7.20;;;;;;;14.53;87.33;100513.59;5032860;28;20702;-83
2023/07/22 01:15:42;;;;;;;9.17;7.07;;;;;;;14.50;87.09;100508.53;5033257;28;20202;-84
2023/07/22 01:18:10;;;;;;;8.33;7.40;;;;;;;14.49;86.93;100511.31;5032437;28;20206;-82
2023/07/22 01:20:37;;;;;;;10.60;8.37;;;;;;;14.46;87.64;100503.53;5031804;28;20752;-82
2023/07/22 01:23:06;;;;;;;8.67;7.10;;;;;;;14.45;87.16;100508.03;5034160;28;20262;-82
2023/07/22 01:25:33;;;;;;;9.33;7.43;;;;;;;14.42;87.45;100519.00;5029845;28;20285;-84
2023/07/22 01:27:59;;;;;;;11.23;8.03;;;;;;;14.40;87.86;100517.38;5029678;28;20209;-84
2023/07/22 01:30:27;;;;;;;8.70;7.07;;;;;;;14.37;87.69;100517.63;5027364;28;20226;-83
2023/07/22 01:32:53;;;;;;;11.57;7.90;;;;;;;14.35;87.73;100517.75;5031836;28;20369;-83
2023/07/22 01:35:20;;;;;;;9.93;7.33;;;;;;;14.32;87.53;100515.34;5031427;28;20213;-83
2023/07/22 01:37:47;;;;;;;9.77;7.73;;;;;;;14.29;87.79;100520.09;5034225;28;20241;-83
2023/07/22 01:40:14;;;;;;;7.67;6.80;;;;;;;14.27;87.55;100516.69;5031678;28;20216;-82
2023/07/22 01:42:42;;;;;;;8.97;7.23;;;;;;;14.25;87.72;100516.81;5032327;28;20717;-84
2023/07/22 01:45:10;;;;;;;11.20;7.47;;;;;;;14.22;87.89;100517.91;5027920;28;20607;-84
2023/07/22 01:47:37;;;;;;;13.17;6.90;;;;;;;14.20;87.69;100516.31;5030573;28;20234;-84
2023/07/22 01:50:05;;;;;;;10.10;7.50;;;;;;;14.18;87.79;100512.91;5030468;28;20228;-83
2023/07/22 01:52:32;;;;;;;8.53;6.83;;;;;;;14.16;87.88;100514.84;5030289;28;20260;-84
2023/07/22 01:54:58;;;;;;;11.00;7.17;;;;;;;14.14;87.81;100511.47;5026383;28;20629;-82
2023/07/22 01:57:26;;;;;;;8.67;7.00;;;;;;;14.12;87.83;100511.59;5027905;28;20206;-83
2023/07/22 01:59:52;;;;;;;8.13;6.60;;;;;;;14.11;87.78;100520.59;5028680;28;20202;-82
2023/07/22 02:02:20;;;;;;;9.83;6.50;;;;;;;14.09;88.19;100514.50;5030323;28;20230;-83
2023/07/22 02:04:46;;;;;;;9.60;6.13;;;;;;;14.08;88.35;100517.31;5027947;28;20215;-83
2023/07/22 02:07:13;;;;;;;9.63;6.70;;;;;;;14.07;87.91;100518.28;5037896;28;20674;-82
2023/07/22 02:09:40;;;;;;;8.60;6.90;;;;;;;14.05;88.24;100512.19;5038296;28;20210;-82
2023/07/22 02:12:08;;;;;;;7.67;6.27;;;;;;;14.03;87.80;100508.78;5033670;28;20226;-82
2023/07/22 02:14:36;;;;;;;7.87;6.37;;;;;;;14.04;87.76;100510.50;5028633;28;20770;-83
2023/07/22 02:17:03;;;;;;;8.87;6.27;;;;;;;14.03;87.63;100516.81;5031142;28;20220;-85
2023/07/22 02:19:30;;;;;;;10.43;6.40;;;;;;;14.01;87.94;100521.44;5027489;28;21105;-84
2023/07/22 02:21:56;;;;;;;9.70;6.00;;;;;;;13.99;87.49;100532.28;5031988;28;20824;-83
2023/07/22 02:24:24;;;;;;;8.10;5.83;;;;;;;13.99;87.27;100529.59;5030251;28;20202;-83
2023/07/22 02:26:50;;;;;;;9.00;5.60;;;;;;;13.96;87.63;100534.38;5031647;28;20221;-83
2023/07/22 02:29:17;;;;;;;9.40;5.67;;;;;;;13.96;87.39;100531.69;5026108;28;20241;-84
2023/07/22 02:31:46;;;;;;;9.47;6.30;;;;;;;13.94;87.58;100538.97;5029208;28;20242;-82
2023/07/22 02:34:12;;;;;;;10.30;6.63;;;;;;;13.92;87.68;100532.91;5030528;28;20218;-83
2023/07/22 02:36:38;;;;;;;11.60;7.43;;;;;;;13.91;87.98;100532.03;5028530;28;20207;-82
2023/07/22 02:39:04;;;;;;;9.80;6.50;;;;;;;13.88;87.87;100533.13;5022364;28;20210;-82
2023/07/22 02:41:31;;;;;;;9.63;6.63;;;;;;;13.85;88.31;100535.19;5040055;28;20201;-83
2023/07/22 02:43:57;;;;;;;13.73;7.30;;;;;;;13.84;88.33;100536.16;5024985;28;20295;-83
2023/07/22 02:46:25;;;;;;;10.67;6.67;;;;;;;13.82;88.25;100535.44;5027119;28;20249;-83
2023/07/22 02:48:52;;;;;;;10.40;7.13;;;;;;;13.78;88.72;100534.84;5031879;28;20245;-83
2023/07/22 02:51:19;;;;;;;10.53;7.13;;;;;;;13.77;88.35;100532.28;5025946;28;20261;-83
2023/07/22 02:53:46;;;;;;;12.17;7.43;;;;;;;13.75;88.39;100535.06;5031114;28;20224;-83
2023/07/22 02:56:13;;;;;;;10.50;7.00;;;;;;;13.74;88.60;100544.06;5025674;28;20214;-82
2023/07/22 02:58:41;;;;;;;12.47;7.07;;;;;;;13.72;88.49;100547.84;5027627;28;20293;-83
2023/07/22 03:01:10;;;;;;;9.13;6.63;;;;;;;13.70;88.90;100552.47;5031759;28;20201;-84
2023/07/22 03:03:38;;;;;;;8.93;6.40;;;;;;;13.69;88.49;100551.59;5030904;28;20229;-85
2023/07/22 03:06:07;;;;;;;11.00;7.07;;;;;;;13.65;88.91;100544.78;5031246;28;20209;-83
2023/07/22 03:08:33;;;;;;;10.07;7.07;;;;;;;13.64;88.77;100556.44;5026700;28;20700;-84
2023/07/22 03:11:00;;;;;;;10.47;6.20;;;;;;;13.64;89.08;100553.78;5038204;28;20318;-84
2023/07/22 03:13:29;;;;;;;12.63;7.00;;;;;;;13.63;89.17;100551.22;5028916;28;20604;-84
2023/07/22 03:15:56;;;;;;;9.10;6.57;;;;;;;13.63;89.05;100556.56;5031225;28;20302;-85
2023/07/22 03:18:22;;;;;;;9.10;6.93;;;;;;;13.61;89.22;100554.03;5030714;28;20210;-84
2023/07/22 03:20:49;;;;;;;10.43;6.60;;;;;;;13.61;89.19;100555.88;5031840;28;20202;-85
2023/07/22 03:23:17;;;;;;;10.63;7.13;;;;;;;13.61;89.02;100562.06;5026537;28;20634;-84
2023/07/22 03:25:43;;;;;;;9.33;6.07;;;;;;;13.58;89.15;100561.44;5019881;28;20202;-84
2023/07/22 03:28:09;;;;;;;10.80;7.07;;;;;;;13.57;89.07;100562.41;5031526;28;20205;-84
2023/07/22 03:30:36;;;;;;;9.93;6.73;;;;;;;13.55;88.79;100562.53;5030970;28;20612;-83
2023/07/22 03:33:02;;;;;;;9.47;6.27;;;;;;;13.53;88.79;100564.47;5028786;28;20814;-83
2023/07/22 03:35:29;;;;;;;12.73;7.53;;;;;;;13.51;88.69;100571.75;5030741;28;20237;-83
2023/07/22 03:37:55;;;;;;;10.47;7.20;;;;;;;13.51;88.99;100571.75;5031297;28;20672;-84
2023/07/22 03:40:26;;;;;;;10.50;6.90;;;;;;;13.51;89.26;100574.44;5031013;28;20206;-84
2023/07/22 03:42:54;;;;;;;11.07;6.53;;;;;;;13.49;89.07;100568.34;5030958;28;20232;-83
2023/07/22 03:45:22;;;;;;;9.53;6.33;;;;;;;13.49;88.81;100565.66;5030905;28;20209;-85
2023/07/22 03:47:51;;;;;;;9.17;6.00;;;;;;;13.48;88.85;100567.50;5031342;28;20206;-83
2023/07/22 03:50:18;;;;;;;9.37;6.67;;;;;;;13.48;88.51;100570.16;5030953;28;20207;-83
2023/07/22 03:52:44;;;;;;;11.40;6.30;;;;;;;13.48;88.66;100572.00;5031306;28;20225;-86
2023/07/22 03:55:11;;;;;;;10.27;6.93;;;;;;;13.46;88.70;100574.78;5022534;28;20195;-84
2023/07/22 03:57:39;;;;;;;8.03;5.80;;;;;;;13.47;88.72;100575.63;5030859;28;20206;-84
2023/07/22 04:00:09;;;;;;;11.00;6.30;;;;;;;13.48;88.75;100574.66;5031430;28;20809;-84
2023/07/22 04:02:35;;;;;;;8.60;6.17;;;;;;;13.48;88.76;100577.34;5023969;28;20344;-85
2023/07/22 04:05:02;;;;;;;10.33;6.70;;;;;;;13.49;88.35;100571.88;5027051;28;20207;-85
2023/07/22 04:07:28;;;;;;;8.83;6.23;;;;;;;13.49;88.51;100574.53;5018963;28;20559;-84
2023/07/22 04:09:55;;;;;;;9.43;6.50;;;;;;;13.48;88.56;100577.34;5023930;28;20202;-85
2023/07/22 04:12:21;;;;;;;8.10;6.07;;;;;;;13.48;88.47;100575.50;5027644;28;20244;-84
2023/07/22 04:14:49;;;;;;;9.07;6.10;;;;;;;13.50;88.73;100575.41;5027436;28;20202;-83
2023/07/22 04:17:16;;;;;;;8.43;6.43;;;;;;;13.52;88.07;100584.16;5030877;28;20218;-84
2023/07/22 04:19:43;;;;;;;10.00;6.50;;;;;;;13.51;88.17;100585.13;5030849;28;20671;-82
2023/07/22 04:22:09;;;;;;;10.50;6.10;;;;;;;13.52;87.99;100581.50;5030306;28;20209;-84
2023/07/22 04:24:36;;;;;;;11.40;6.37;;;;;;;13.53;88.01;100586.72;5031045;28;20637;-85
2023/07/22 04:27:03;;;;;;;9.07;6.73;;;;;;;13.54;88.29;100580.41;5031210;28;20206;-84
2023/07/22 04:29:29;;;;;;;9.77;6.10;;;;;;;13.54;88.30;100580.41;5031073;28;20199;-85
2023/07/22 04:31:59;;;;;;;10.17;6.47;;;;;;;13.56;88.40;100585.66;5034548;28;20230;-84
2023/07/22 04:34:29;;;;;;;9.17;6.17;;;;;;;13.62;88.61;100593.19;5034004;28;20222;-85
2023/07/22 04:36:56;;;;;;;9.10;6.10;;;;;;;13.61;88.13;100587.97;5027417;28;20194;-82
2023/07/22 04:39:23;;;;;;;11.07;6.77;;;;;;;13.64;88.46;100583.22;5034291;28;20202;-84
2023/07/22 04:41:49;;;;;;;10.13;6.60;;;;;;;13.65;88.04;100581.38;5026646;28;20242;-85
2023/07/22 04:44:16;;;;;;;6.70;4.80;;;;;;;13.67;87.94;100588.34;5029855;28;20632;-84
2023/07/22 04:46:43;;;;;;;8.77;5.53;;;;;;;13.69;87.70;100588.22;5034230;28;20689;-83
2023/07/22 04:49:12;;;;;;;9.13;6.00;;;;;;;13.72;87.30;100590.66;5034433;28;20216;-85
2023/07/22 04:51:38;;;;;;;10.17;6.00;;;;;;;13.76;87.51;100592.13;5032636;28;20229;-85
2023/07/22 04:54:04;;;;;;;9.00;6.37;;;;;;;13.79;86.90;100594.59;5034252;28;20218;-84
2023/07/22 04:56:31;;;;;;;8.47;6.17;;;;;;;13.82;87.05;100587.13;5034516;28;20210;-85
2023/07/22 04:58:57;;;;;;;7.63;5.57;;;;;;;13.86;86.91;100591.28;5034810;28;20210;-85
2023/07/22 05:01:25;;;;;;;8.97;5.70;;;;;;;13.89;86.40;100591.06;5034280;28;20202;-84
2023/07/22 05:03:51;;;;;;;9.17;5.80;;;;;;;13.93;86.21;100599.72;5034710;28;20237;-85
2023/07/22 05:06:19;;;;;;;7.63;5.83;;;;;;;13.95;86.27;100603.13;5035669;28;20203;-82
2023/07/22 05:08:46;;;;;;;9.63;5.83;;;;;;;13.99;85.97;100598.34;5034792;28;20594;-82
2023/07/22 05:11:12;;;;;;;8.60;5.37;;;;;;;14.01;85.85;100605.31;5034311;28;20620;-84
2023/07/22 05:13:39;;;;;;;8.53;5.53;;;;;;;14.06;85.18;100597.78;5034258;28;20256;-83
2023/07/22 05:16:05;;;;;;;7.97;5.77;;;;;;;14.09;85.27;100594.00;5034629;28;20214;-83
2023/07/22 05:18:32;;;;;;;7.67;5.60;;;;;;;14.14;85.06;100598.03;5034250;28;20220;-83
2023/07/22 05:20:58;;;;;;;10.73;5.63;;;;;;;14.17;84.39;100589.72;5034417;28;20285;-82
2023/07/22 05:23:26;;;;;;;7.60;5.53;;;;;;;14.20;84.40;100594.84;5034328;28;20222;-83
2023/07/22 05:25:54;;;;;;;8.93;5.30;;;;;;;14.25;84.25;100591.81;5034535;28;20655;-83
2023/07/22 05:28:20;;;;;;;7.83;5.63;;;;;;;14.29;84.55;100585.25;5034237;28;20217;-83
2023/07/22 05:30:48;;;;;;;8.57;5.53;;;;;;;14.36;84.43;100591.78;5033991;28;20237;-86
2023/07/22 05:33:14;;;;;;;7.93;5.63;;;;;;;14.40;83.96;100601.34;5033522;28;20280;-82
2023/07/22 05:35:40;;;;;;;6.47;5.03;;;;;;;14.43;83.71;100598.41;5033746;28;20205;-82
2023/07/22 05:38:07;;;;;;;8.80;5.63;;;;;;;14.47;83.56;100610.59;5033635;28;20211;-83
2023/07/22 05:40:35;;;;;;;10.97;6.10;;;;;;;14.50;83.48;100610.34;5032972;28;20209;-83
2023/07/22 05:43:02;;;;;;;8.37;5.53;;;;;;;14.57;83.34;100610.69;5032618;28;20217;-84
2023/07/22 05:45:29;;;;;;;8.17;5.20;;;;;;;14.64;83.84;100609.25;5033465;28;20655;-82
2023/07/22 05:47:55;;;;;;;9.37;6.00;;;;;;;14.76;83.52;100607.38;5021506;28;20224;-82
2023/07/22 05:50:22;;;;;;;10.23;5.77;;;;;;;14.89;83.83;100605.38;5013135;28;20206;-83
2023/07/22 05:52:49;;;;;;;12.97;5.43;;;;;;;15.04;83.29;100606.00;5013392;28;20247;-85
2023/07/22 05:55:15;;;;;;;9.20;5.67;;;;;;;15.15;82.31;100612.16;5013225;28;20874;-82
2023/07/22 05:57:43;;;;;;;8.73;5.73;;;;;;;15.24;81.74;100616.75;5013331;28;20209;-84
2023/07/22 06:00:12;;;;;;;8.40;5.50;;;;;;;15.34;80.58;100618.66;5018885;28;20222;-82
2023/07/22 06:02:39;;;;;;;9.67;5.57;;;;;;;15.39;79.71;100625.38;5033089;28;20648;-83
2023/07/22 06:05:06;;;;;;;8.53;5.47;;;;;;;15.44;78.93;100619.59;5033015;28;20227;-83
2023/07/22 06:07:32;;;;;;;6.97;5.43;;;;;;;15.50;78.61;100628.00;5032442;28;20216;-83
2023/07/22 06:09:59;;;;;;;7.17;5.23;;;;;;;15.58;78.28;100622.88;5033040;28;20601;-85
2023/07/22 06:12:25;;;;;;;8.20;5.93;;;;;;;15.67;77.52;100628.44;5020555;28;20242;-83
2023/07/22 06:14:53;;;;;;;10.43;5.50;;;;;;;15.71;76.76;100625.34;5031713;28;20209;-83
2023/07/22 06:17:20;;;;;;;10.10;6.40;;;;;;;15.74;77.22;100629.63;5032728;28;20216;-83
2023/07/22 06:19:47;;;;;;;7.87;5.37;;;;;;;15.78;77.09;100625.66;5032755;28;20216;-83
2023/07/22 06:22:13;;;;;;;9.77;5.77;;;;;;;15.84;76.97;100628.69;5032731;28;20295;-84
2023/07/22 06:24:40;;;;;;;10.63;6.87;;;;;;;15.89;76.66;100628.31;5032848;28;20212;-83
2023/07/22 06:27:06;;;;;;;11.37;6.57;;;;;;;15.97;75.29;100632.03;5032633;28;20208;-83
2023/07/22 06:29:33;;;;;;;10.10;7.10;;;;;;;16.00;75.10;100630.06;5032940;28;20203;-83
2023/07/22 06:32:00;;;;;;;9.77;6.23;;;;;;;16.05;74.89;100638.56;5032883;28;20248;-83
2023/07/22 06:34:27;;;;;;;10.33;7.17;;;;;;;16.11;74.68;100632.69;5032423;28;20210;-83
2023/07/22 06:36:54;;;;;;;11.97;7.70;;;;;;;16.16;74.63;100633.97;5032578;28;20205;-83
2023/07/22 06:39:20;;;;;;;8.37;6.23;;;;;;;16.23;74.37;100631.59;5032769;28;20210;-83
2023/07/22 06:41:47;;;;;;;9.53;6.60;;;;;;;16.30;74.12;100632.78;5031863;28;20219;-82
2023/07/22 06:44:13;;;;;;;8.70;6.77;;;;;;;16.41;73.89;100635.38;5032248;28;20629;-84
2023/07/22 06:46:40;;;;;;;8.70;6.07;;;;;;;16.50;73.39;100639.94;5032906;28;20213;-82
2023/07/22 06:49:08;;;;;;;11.30;7.37;;;;;;;16.58;72.34;100633.88;5032449;28;20291;-83
2023/07/22 06:51:35;;;;;;;12.10;7.30;;;;;;;16.60;71.78;100638.16;5033627;28;20578;-85
2023/07/22 06:54:03;;;;;;;12.83;6.80;;;;;;;16.64;71.31;100645.00;5032688;28;20222;-82
2023/07/22 06:56:30;;;;;;;10.33;6.57;;;;;;;16.67;72.01;100644.69;5032430;28;20217;-82
2023/07/22 06:58:57;;;;;;;7.70;6.17;;;;;;;16.70;71.59;100642.72;5032373;28;20207;-84
2023/07/22 07:01:23;;;;;;;9.27;6.50;;;;;;;16.73;71.37;100635.25;5032062;28;20207;-84
2023/07/22 07:03:50;;;;;;;9.30;6.93;;;;;;;16.76;71.38;100645.72;5032332;28;20223;-84
2023/07/22 07:06:18;;;;;;;9.50;7.53;;;;;;;16.78;70.32;100632.16;5032531;28;20198;-85
2023/07/22 07:08:44;;;;;;;9.10;6.70;;;;;;;16.79;70.13;100639.22;5032420;28;20225;-84
2023/07/22 07:11:11;;;;;;;12.73;7.00;;;;;;;16.79;70.18;100639.22;5032157;28;20213;-84
2023/07/22 07:13:37;;;;;;;8.90;6.97;;;;;;;16.81;70.47;100648.00;5030523;28;20268;-84
2023/07/22 07:16:23;;;;;;;20.70;7.63;;;;;;;16.86;70.11;100634.97;5032393;28;20205;-85
2023/07/22 07:18:50;;;;;;;10.97;7.57;;;;;;;16.86;69.78;100634.97;5031632;28;20210;-84
2023/07/22 07:21:18;;;;;;;9.20;6.93;;;;;;;16.87;69.72;100634.00;5032145;28;20210;-86
2023/07/22 07:23:45;;;;;;;10.63;7.67;;;;;;;16.88;69.68;100639.25;5032349;28;20595;-83
2023/07/22 07:26:12;;;;;;;9.30;6.97;;;;;;;16.91;70.12;100638.13;5033132;28;20232;-86
2023/07/22 07:28:38;;;;;;;10.43;7.50;;;;;;;16.95;69.78;100634.16;5033155;28;20690;-84
2023/07/22 07:31:05;;;;;;;10.53;6.87;;;;;;;16.94;69.87;100637.84;5033162;28;20216;-85
2023/07/22 07:33:31;;;;;;;9.63;6.03;;;;;;;16.96;70.19;100639.41;5032679;28;20234;-83
2023/07/22 07:35:58;;;;;;;9.83;7.37;;;;;;;17.00;70.04;100645.38;5032395;28;20213;-83
2023/07/22 07:38:26;;;;;;;11.40;7.83;;;;;;;17.01;69.86;100647.06;5031686;28;20582;-82
2023/07/22 07:40:53;;;;;;;9.43;7.07;;;;;;;17.03;69.74;100653.13;5032658;28;20206;-84
2023/07/22 07:43:20;;;;;;;9.13;7.07;;;;;;;17.02;68.89;100654.97;5031977;28;20229;-84
2023/07/22 07:45:46;;;;;;;11.17;6.77;;;;;;;17.04;69.41;100654.00;5031877;28;20203;-82
2023/07/22 07:48:13;;;;;;;9.17;6.43;;;;;;;17.08;69.30;100650.03;5032047;28;20207;-84
2023/07/22 07:50:39;;;;;;;7.63;5.97;;;;;;;17.14;69.27;100647.66;5031263;28;20210;-83
2023/07/22 07:53:06;;;;;;;8.73;5.83;;;;;;;17.24;69.81;100648.50;5031379;28;20232;-82
2023/07/22 07:55:33;;;;;;;7.07;5.97;;;;;;;17.33;69.39;100649.53;5031311;28;20588;-83
2023/07/22 07:58:00;;;;;;;6.87;5.63;;;;;;;17.37;68.82;100664.41;5031640;28;20211;-84
2023/07/22 08:00:26;;;;;;;8.47;6.03;;;;;;;17.40;68.11;100665.94;5031093;28;20545;-83
2023/07/22 08:02:53;;;;;;;9.67;6.33;;;;;;;17.40;67.40;100663.25;5031409;28;20219;-83
2023/07/22 08:05:19;;;;;;;7.27;6.10;;;;;;;17.35;66.89;100667.25;5033049;28;20220;-83
2023/07/22 08:07:47;;;;;;;11.50;5.90;;;;;;;17.33;66.57;100658.47;5035551;28;20243;-83
2023/07/22 08:10:13;;;;;;;9.70;6.10;;;;;;;17.31;66.92;100657.75;5035623;28;20286;-85
2023/07/22 08:12:41;;;;;;;8.70;6.40;;;;;;;17.30;67.15;100658.72;5035196;28;20631;-84
2023/07/22 08:15:09;;;;;;;10.97;6.90;;;;;;;17.31;67.00;100662.28;5035842;28;20218;-85
2023/07/22 08:17:35;;;;;;;11.57;7.33;;;;;;;17.33;67.29;100665.69;5034105;28;20278;-82
2023/07/22 08:20:02;;;;;;;10.57;6.73;;;;;;;17.33;67.02;100661.16;5050885;28;20701;-82
2023/07/22 08:22:28;;;;;;;9.57;7.10;;;;;;;17.34;67.33;100654.78;5056069;28;20282;-81
2023/07/22 08:24:55;;;;;;;8.67;6.90;;;;;;;17.41;67.62;100663.13;5056935;28;20675;-81
2023/07/22 08:27:23;;;;;;;9.13;6.77;;;;;;;17.48;68.13;100663.41;5055586;28;20262;-81
2023/07/22 08:29:51;;;;;;;8.50;6.83;;;;;;;17.56;68.18;100661.69;5055071;28;20202;-82
2023/07/22 08:32:17;;;;;;;10.37;7.13;;;;;;;17.68;68.21;100667.84;5054738;28;20243;-82
2023/07/22 08:34:44;;;;;;;12.03;7.80;;;;;;;17.79;67.38;100661.44;5055961;28;20222;-82
2023/07/22 08:37:11;;;;;;;11.53;7.97;;;;;;;17.91;67.25;100663.88;5055816;28;20231;-82
2023/07/22 08:39:38;;;;;;;12.40;8.67;;;;;;;18.06;66.62;100661.56;5055602;28;20219;-83
2023/07/22 08:42:05;;;;;;;11.10;9.00;;;;;;;18.20;65.57;100666.50;5055505;28;20218;-83
2023/07/22 08:44:35;;;;;;;9.17;7.50;;;;;;;18.28;64.93;100663.91;5055714;28;20613;-83
2023/07/22 08:47:04;;;;;;;9.80;7.60;;;;;;;18.44;65.67;100671.41;5056242;28;20268;-84
2023/07/22 08:49:31;;;;;;;11.87;9.07;;;;;;;18.59;64.38;100678.03;5055753;28;20234;-84
2023/07/22 08:51:59;;;;;;;9.87;8.37;;;;;;;18.68;62.98;100660.09;5055491;28;20205;-82
2023/07/22 08:54:25;;;;;;;11.57;9.03;;;;;;;18.79;63.42;100667.19;5055364;28;20915;-84
2023/07/22 08:56:52;;;;;;;11.57;9.07;;;;;;;18.94;63.07;100654.88;5055825;28;20222;-81
2023/07/22 08:59:18;;;;;;;12.07;8.57;;;;;;;19.08;62.50;100668.69;5055691;28;20229;-83
2023/07/22 09:01:47;;;;;;;9.93;8.37;;;;;;;19.17;61.39;100666.94;5055710;28;20210;-84
2023/07/22 09:04:15;;;;;;;11.00;8.90;;;;;;;19.27;61.77;100666.88;5054637;28;20236;-82
2023/07/22 09:06:42;;;;;;;10.27;8.97;;;;;;;19.34;61.87;100658.03;5054846;28;20605;-83
2023/07/22 09:09:11;;;;;;;9.70;8.07;;;;;;;19.46;61.33;100657.78;5054798;28;20219;-84
2023/07/22 09:11:39;;;;;;;10.73;8.37;;;;;;;19.48;60.51;100658.50;5055343;28;20625;-82
2023/07/22 09:14:05;;;;;;;13.60;8.47;;;;;;;19.54;60.77;100656.03;5054969;28;20598;-81
2023/07/22 09:16:32;;;;;;;10.87;8.30;;;;;;;19.64;60.34;100653.25;5053541;28;20578;-82
2023/07/22 09:18:59;;;;;;;9.30;7.60;;;;;;;19.73;60.85;100649.63;5035911;28;20204;-81
2023/07/22 09:21:28;;;;;;;8.57;7.27;;;;;;;19.82;59.46;100647.84;5034832;28;20208;-83
2023/07/22 09:23:55;;;;;;;10.73;7.23;;;;;;;19.89;59.58;100641.63;5034695;28;20270;-82
2023/07/22 09:26:21;;;;;;;9.40;7.17;;;;;;;20.01;59.87;100639.53;5033634;28;20217;-83
2023/07/22 09:28:49;;;;;;;8.13;6.57;;;;;;;20.10;58.58;100642.13;5034321;28;20263;-80
2023/07/22 09:31:15;;;;;;;8.40;6.30;;;;;;;20.18;56.89;100648.63;5033023;28;20222;-81
2023/07/22 09:33:42;;;;;;;8.87;6.23;;;;;;;20.17;57.38;100639.66;5027333;28;20252;-81
2023/07/22 09:36:11;;;;;;;8.13;5.97;;;;;;;20.28;58.23;100647.50;5033697;28;20209;-81
2023/07/22 09:38:39;;;;;;;6.75;6.05;;;;;;;20.35;57.08;100645.00;5033852;28;20205;-81
2023/07/22 09:41:05;;;;;;;7.57;5.57;;;;;;;20.45;57.28;100638.50;5031520;28;20207;-83
2023/07/22 09:43:32;;;;;;;6.47;5.30;;;;;;;20.53;56.83;100640.41;5027282;28;20682;-82
2023/07/22 09:46:06;;;;;;;6.57;5.32;;;;;;;20.65;56.24;100635.53;5033511;28;20291;-80
2023/07/22 09:48:40;;;;;;;6.68;5.50;;;;;;;20.67;55.01;100639.78;5026617;28;20224;-82
2023/07/22 09:51:07;;;;;;;6.85;5.00;;;;;;;20.75;55.72;100639.00;5031096;28;20209;-82
2023/07/22 09:53:33;;;;;;;5.40;4.88;;;;;;;20.87;54.84;100634.13;5028986;28;20230;-83
2023/07/22 09:56:05;;;;;;;5.35;4.60;;;;;;;20.99;54.89;100640.91;5029602;28;20210;-81
2023/07/22 09:58:33;;;;;;;5.93;4.80;;;;;;;21.09;54.27;100631.66;5034332;28;20198;-82
2023/07/22 10:01:01;;;;;;;4.90;4.40;;;;;;;21.23;54.08;100624.78;5034625;28;20209;-82
2023/07/22 10:03:30;;;;;;;5.97;4.65;;;;;;;21.31;53.07;100619.38;5031671;28;20225;-82
2023/07/22 10:06:00;;;;;;;5.47;4.65;;;;;;;21.33;52.65;100624.59;5032981;28;20295;-82
2023/07/22 10:08:31;;;;;;;4.82;4.32;;;;;;;21.35;52.31;100628.00;5030915;28;20202;-83
2023/07/22 10:11:00;;;;;;;5.32;4.80;;;;;;;21.44;52.51;100625.16;5033486;28;20210;-83
2023/07/22 10:13:28;;;;;;;7.22;4.78;;;;;;;21.53;52.59;100625.97;5024973;28;20236;-82
2023/07/22 10:15:55;;;;;;;5.70;4.60;;;;;;;21.61;51.25;100627.84;5024405;28;20207;-84
2023/07/22 10:18:22;;;;;;;4.45;4.05;;;;;;;21.59;51.19;100613.63;5032607;28;20194;-82
2023/07/22 10:20:49;;;;;;;7.03;4.07;;;;;;;21.57;50.58;100616.50;5028535;28;20214;-82
2023/07/22 10:23:16;;;;;;;4.15;3.22;;;;;;;21.51;50.85;100609.03;5028221;28;20627;-82
2023/07/22 10:25:43;;;;;;;5.43;4.30;;;;;;;21.52;51.00;100620.72;5029793;28;20206;-82
2023/07/22 10:28:11;;;;;;;6.32;4.35;;;;;;;21.45;51.34;100616.00;5030944;28;20206;-84
2023/07/22 10:30:44;;;;;;;5.15;3.90;;;;;;;21.44;51.42;100616.16;5032976;28;20221;-82
2023/07/22 10:33:11;;;;;;;5.93;4.28;;;;;;;21.42;50.93;100618.19;5029484;28;20742;-84
2023/07/22 10:35:44;;;;;;;5.43;4.03;;;;;;;21.47;51.94;100613.13;5030591;28;20221;-84
2023/07/22 10:38:12;;;;;;;6.45;4.88;;;;;;;21.55;51.80;100618.53;5029802;28;20217;-83
2023/07/22 10:40:57;;;;;;;6.82;5.10;;;;;;;21.55;50.53;100614.97;5027906;28;20337;-83
2023/07/22 10:43:28;;;;;;;5.00;4.40;;;;;;;21.55;51.57;100618.53;5032758;28;20218;-83
2023/07/22 10:45:57;;;;;;;4.82;4.32;;;;;;;21.64;51.71;100613.97;5030864;28;20291;-81
2023/07/22 10:48:27;;;;;;;5.95;4.68;;;;;;;21.72;51.19;100616.66;5032539;28;20205;-81
2023/07/22 10:51:05;;;;;;;5.18;4.65;;;;;;;21.79;51.00;100601.44;5033650;28;20209;-83
2023/07/22 10:53:31;;;;;;;5.03;4.13;;;;;;;21.92;51.85;100603.59;5025695;28;20233;-83
2023/07/22 10:56:03;;;;;;;5.78;3.95;;;;;;;22.00;50.09;100604.50;5031491;28;20202;-82
2023/07/22 10:58:30;;;;;;;4.55;4.07;;;;;;;22.05;49.37;100604.81;5027981;28;20291;-83
2023/07/22 11:01:31;;;;;;;6.57;4.32;;;;;;;22.13;49.67;100601.22;5030971;28;20212;-82
2023/07/22 11:04:07;;;;;;;6.55;4.90;;;;;;;22.22;49.57;100602.91;5027065;28;20225;-83
2023/07/22 11:06:37;;;;;;;4.78;4.28;;;;;;;22.31;49.00;100595.59;5031743;28;20236;-82
2023/07/22 11:09:04;;;;;;;5.53;4.32;;;;;;;22.30;48.40;100580.34;5037722;28;20718;-82
2023/07/22 11:11:38;;;;;;;4.68;4.20;;;;;;;22.26;48.14;100582.53;5031251;28;20210;-82
2023/07/22 11:14:16;;;;;;;5.30;4.25;;;;;;;22.30;47.93;100588.47;5031579;28;20593;-84
2023/07/22 11:16:45;;;;;;;4.30;3.88;;;;;;;22.36;47.72;100590.50;5029264;28;20194;-83
2023/07/22 11:19:13;;;;;;;6.07;4.20;;;;;;;22.37;47.35;100582.19;5024064;28;20209;-83
2023/07/22 11:21:40;;;;;;;4.78;4.13;;;;;;;22.39;47.44;100584.72;5029466;28;20206;-82
2023/07/22 11:24:07;;;;;;;4.13;3.50;;;;;;;22.43;47.79;100572.47;5032587;28;20221;-82